Time;durP1;ratioP1;P1;durP2;ratioP2;P2;SDS_P1;SDS_P2;PMS_P1;PMS_P2;Temp;Humidity;BMP_temperature;BMP_pressure;BME280_temperature;BME280_humidity;BME280_pressure;Samples;Min_cycle;Max_cycle;Signal;HPM_P1;HPM_P2
2022/03/15 00:09:07;;;;;;;14.80;7.97;;;6.30;86.00;;;;;;20842638;28;20224;-64
2022/03/15 00:19:09;;;;;;;14.27;7.90;;;6.20;86.80;;;;;;20843011;28;20209;-64
2022/03/15 00:29:11;;;;;;;13.03;7.53;;;6.20;86.60;;;;;;20835338;28;20288;-65
2022/03/15 00:39:16;;;;;;;10.53;6.90;;;6.20;87.20;;;;;;20834807;28;20214;-62
2022/03/15 00:49:18;;;;;;;11.40;6.90;;;6.10;86.90;;;;;;20834338;28;20282;-63
2022/03/15 00:59:20;;;;;;;11.50;7.27;;;6.10;87.40;;;;;;20832572;28;20719;-65
2022/03/15 01:09:22;;;;;;;11.43;6.60;;;6.00;86.70;;;;;;20831851;28;20243;-63
2022/03/15 01:19:25;;;;;;;10.57;6.23;;;6.00;87.20;;;;;;20830162;28;20288;-64
2022/03/15 01:29:28;;;;;;;9.63;6.53;;;6.00;87.40;;;;;;20828215;28;20233;-61
2022/03/15 01:39:30;;;;;;;9.40;5.97;;;6.00;86.90;;;;;;20830294;28;20208;-63
2022/03/15 01:49:33;;;;;;;10.10;6.10;;;5.90;87.70;;;;;;20829246;28;20253;-67
2022/03/15 01:59:38;;;;;;;11.53;6.70;;;5.90;87.00;;;;;;20829417;28;20618;-61
2022/03/15 02:09:41;;;;;;;9.80;6.53;;;5.80;86.90;;;;;;20828809;28;20759;-62
2022/03/15 02:19:43;;;;;;;11.37;6.80;;;5.80;87.60;;;;;;20828576;28;20266;-62
2022/03/15 02:29:45;;;;;;;10.73;6.57;;;5.80;87.20;;;;;;20829213;28;20236;-61
2022/03/15 02:39:47;;;;;;;13.60;7.00;;;5.90;87.40;;;;;;20833081;28;20212;-62
2022/03/15 02:49:49;;;;;;;12.23;7.00;;;5.90;87.80;;;;;;20841723;28;20286;-61
2022/03/15 02:59:51;;;;;;;13.37;6.90;;;5.70;87.70;;;;;;20841885;28;20265;-62
2022/03/15 03:09:53;;;;;;;12.37;6.60;;;5.70;88.50;;;;;;20841462;28;20771;-62
2022/03/15 03:19:55;;;;;;;13.83;6.60;;;5.70;87.90;;;;;;20839708;28;20208;-62
2022/03/15 03:29:58;;;;;;;13.50;6.80;;;5.70;87.70;;;;;;20837510;28;20718;-62
2022/03/15 03:40:07;;;;;;;10.47;6.60;;;5.70;88.40;;;;;;20840345;28;20208;-62
2022/03/15 03:50:09;;;;;;;10.00;6.40;;;5.70;88.30;;;;;;20837714;28;20343;-62
2022/03/15 04:00:11;;;;;;;12.60;6.87;;;5.70;88.50;;;;;;20837327;28;20660;-63
2022/03/15 04:10:14;;;;;;;13.17;7.30;;;5.70;88.40;;;;;;20836536;28;20700;-61
2022/03/15 04:20:16;;;;;;;12.57;7.20;;;5.60;88.80;;;;;;20835808;28;20564;-62
2022/03/15 04:30:19;;;;;;;14.37;6.90;;;5.60;88.70;;;;;;20834961;28;20575;-61
2022/03/15 04:40:21;;;;;;;20.63;7.33;;;5.60;88.80;;;;;;20834495;28;20213;-62
2022/03/15 04:50:22;;;;;;;14.67;9.87;;;5.50;90.20;;;;;;20832857;28;20722;-63
2022/03/15 05:00:24;;;;;;;13.20;9.47;;;5.40;90.30;;;;;;20832075;28;20638;-61
2022/03/15 05:20:46;;;;;;;14.93;9.60;;;5.40;91.00;;;;;;20831063;28;20212;-64
2022/03/15 05:30:48;;;;;;;17.17;9.77;;;5.40;91.30;;;;;;20828975;28;20244;-64
2022/03/15 05:40:50;;;;;;;17.67;9.73;;;5.60;91.40;;;;;;20831049;28;20736;-63
2022/03/15 05:50:52;;;;;;;15.70;10.17;;;5.60;91.20;;;;;;20829973;28;20236;-61
2022/03/15 06:00:55;;;;;;;17.07;9.93;;;5.60;91.60;;;;;;20830114;28;20235;-65
2022/03/15 06:10:57;;;;;;;17.63;9.80;;;5.60;91.50;;;;;;20834045;28;20327;-67
2022/03/15 06:21:03;;;;;;;16.80;10.03;;;5.70;91.40;;;;;;20861532;28;20212;-62
2022/03/15 06:31:05;;;;;;;16.63;10.13;;;5.70;91.50;;;;;;20844337;28;20232;-64
2022/03/15 06:41:09;;;;;;;14.90;9.60;;;5.70;91.80;;;;;;20844961;28;20212;-61
2022/03/15 06:51:11;;;;;;;15.60;10.47;;;5.80;91.50;;;;;;20841192;28;20248;-65
2022/03/15 07:01:12;;;;;;;19.17;10.40;;;5.80;91.80;;;;;;20839354;28;20810;-70
2022/03/15 07:17:17;;;;;;;18.10;10.53;;;6.00;91.60;;;;;;20981375;28;20569;-72
2022/03/15 07:27:19;;;;;;;15.47;9.77;;;6.10;91.50;;;;;;20913220;28;20216;-73
2022/03/15 07:37:24;;;;;;;15.07;9.47;;;6.30;91.60;;;;;;20906399;28;20303;-70
2022/03/15 07:47:26;;;;;;;22.43;11.57;;;6.50;91.80;;;;;;20907134;28;20204;-67
2022/03/15 07:57:28;;;;;;;18.70;10.13;;;6.60;91.30;;;;;;20909417;28;20610;-70
2022/03/15 08:07:30;;;;;;;25.83;10.50;;;6.70;91.40;;;;;;20912523;28;20679;-73
2022/03/15 08:17:33;;;;;;;18.50;10.40;;;6.80;91.30;;;;;;20912088;28;20582;-63
2022/03/15 08:27:35;;;;;;;29.63;10.30;;;7.10;91.30;;;;;;20861719;28;20633;-67
2022/03/15 08:37:37;;;;;;;33.37;10.80;;;7.20;91.20;;;;;;20853435;28;20603;-63
2022/03/15 08:47:40;;;;;;;21.60;10.93;;;7.50;91.20;;;;;;20850652;28;20213;-66
2022/03/15 08:57:41;;;;;;;20.67;11.20;;;7.90;90.80;;;;;;20854042;28;20603;-71
2022/03/15 09:07:45;;;;;;;19.90;10.23;;;8.00;91.10;;;;;;20853277;28;20710;-66
2022/03/15 09:17:47;;;;;;;30.50;11.30;;;8.30;90.50;;;;;;20850919;28;20218;-70
2022/03/15 09:27:57;;;;;;;28.87;11.10;;;8.50;90.70;;;;;;20847022;28;20241;-71
2022/03/15 09:37:59;;;;;;;18.37;10.20;;;8.70;90.50;;;;;;20844467;28;20289;-70
2022/03/15 09:48:04;;;;;;;24.77;10.10;;;9.00;90.30;;;;;;20833586;28;20231;-69
2022/03/15 09:58:06;;;;;;;30.07;16.17;;;9.10;90.10;;;;;;20832466;28;20208;-73
2022/03/15 10:08:09;;;;;;;25.50;13.07;;;9.40;90.00;;;;;;20901908;28;20237;-65
2022/03/15 10:18:17;;;;;;;23.10;14.73;;;9.70;89.60;;;;;;20912933;28;20253;-64
2022/03/15 10:28:19;;;;;;;18.77;10.27;;;10.10;88.00;;;;;;20912344;28;20235;-65
2022/03/15 10:38:21;;;;;;;12.87;8.90;;;10.50;86.10;;;;;;20912201;28;20262;-70
2022/03/15 10:48:26;;;;;;;14.70;8.73;;;10.60;85.50;;;;;;20911148;28;20234;-65
2022/03/15 10:58:27;;;;;;;11.20;8.17;;;10.70;85.40;;;;;;20914526;28;20206;-66
2022/03/15 11:08:29;;;;;;;13.60;8.00;;;11.10;84.60;;;;;;20909381;28;20244;-63
2022/03/15 11:18:34;;;;;;;12.37;7.70;;;11.20;84.70;;;;;;20910550;28;20213;-66
2022/03/15 11:28:39;;;;;;;12.30;8.43;;;11.20;83.30;;;;;;20905382;28;20232;-70
2022/03/15 11:38:41;;;;;;;15.40;8.57;;;11.30;82.50;;;;;;20913961;28;20204;-66
2022/03/15 11:49:06;;;;;;;12.47;8.10;;;11.40;83.00;;;;;;20920637;28;20237;-62
2022/03/15 11:59:07;;;;;;;13.20;8.40;;;11.60;81.10;;;;;;20921750;28;20720;-62
2022/03/15 12:09:13;;;;;;;15.03;8.90;;;11.70;80.60;;;;;;20924958;28;20232;-61
2022/03/15 12:29:32;;;;;;;14.70;9.20;;;11.70;80.80;;;;;;20923017;28;20603;-62
2022/03/15 12:39:35;;;;;;;12.50;8.73;;;11.90;80.70;;;;;;20921837;28;20204;-62
2022/03/15 12:49:37;;;;;;;13.17;9.17;;;11.90;80.40;;;;;;20920360;28;20773;-69
2022/03/15 12:59:40;;;;;;;13.87;8.93;;;11.90;79.60;;;;;;20920307;28;20672;-67
2022/03/15 13:09:41;;;;;;;16.70;9.27;;;11.80;80.10;;;;;;20918200;28;20245;-67
2022/03/15 13:19:47;;;;;;;18.00;10.47;;;11.80;80.40;;;;;;20839038;28;20210;-67
2022/03/15 13:29:50;;;;;;;18.03;10.50;;;11.70;80.40;;;;;;20837116;28;20255;-67
2022/03/15 13:39:52;;;;;;;15.03;9.97;;;11.70;81.40;;;;;;20834806;28;20269;-68
2022/03/15 13:49:58;;;;;;;19.20;10.83;;;11.70;82.60;;;;;;20835737;28;20707;-73
2022/03/15 14:00:28;;;;;;;16.53;11.30;;;11.60;84.10;;;;;;20838836;28;20214;-67
2022/03/15 14:10:30;;;;;;;16.30;11.53;;;11.70;86.20;;;;;;20877979;28;20254;-67
2022/03/15 14:20:41;;;;;;;17.90;12.43;;;11.60;87.60;;;;;;20914738;28;20642;-71
2022/03/15 14:30:43;;;;;;;18.93;13.50;;;11.30;89.30;;;;;;20914932;28;20242;-67
2022/03/15 14:40:47;;;;;;;19.43;13.53;;;11.10;90.80;;;;;;20913109;28;20550;-68
2022/03/15 14:50:51;;;;;;;20.07;13.37;;;10.80;92.40;;;;;;20912732;28;20286;-68
2022/03/15 15:00:52;;;;;;;20.80;14.23;;;10.70;93.00;;;;;;20912557;28;20611;-70
2022/03/15 15:11:01;;;;;;;23.60;14.63;;;10.60;93.80;;;;;;20856892;28;20379;-71
2022/03/15 15:21:03;;;;;;;24.60;14.97;;;10.50;94.50;;;;;;20830339;28;20205;-74
2022/03/15 15:31:06;;;;;;;22.27;15.60;;;10.40;94.80;;;;;;20834908;28;20263;-66
2022/03/15 15:41:11;;;;;;;21.37;14.80;;;10.30;95.10;;;;;;20848258;28;20202;-64
2022/03/15 15:51:17;;;;;;;30.40;20.77;;;10.20;95.30;;;;;;20846177;28;20754;-73
2022/03/15 16:01:21;;;;;;;21.97;15.20;;;10.20;95.80;;;;;;20844269;28;20204;-72
2022/03/15 16:11:26;;;;;;;30.63;17.33;;;10.20;96.10;;;;;;20857589;28;20663;-70
2022/03/15 16:21:28;;;;;;;24.80;17.37;;;10.20;96.10;;;;;;20841031;28;20689;-72
2022/03/15 16:31:39;;;;;;;23.93;16.60;;;10.20;96.60;;;;;;20841276;28;20285;-72
2022/03/15 16:41:42;;;;;;;30.23;17.97;;;10.10;97.00;;;;;;20839133;28;20216;-72
2022/03/15 16:51:43;;;;;;;28.57;17.20;;;10.00;97.20;;;;;;20845447;28;20639;-71
2022/03/15 17:01:46;;;;;;;33.53;19.20;;;10.00;97.60;;;;;;20840529;28;20208;-71
2022/03/15 17:12:05;;;;;;;32.03;19.37;;;10.00;97.90;;;;;;20840276;28;20237;-74
2022/03/15 17:22:07;;;;;;;27.90;18.40;;;10.00;97.90;;;;;;20851860;28;20266;-74
2022/03/15 17:32:14;;;;;;;32.70;19.40;;;10.00;98.20;;;;;;20850455;28;20716;-71
2022/03/15 17:42:18;;;;;;;27.77;19.00;;;9.90;98.80;;;;;;20838296;28;20291;-71
2022/03/15 17:52:20;;;;;;;29.00;19.93;;;9.90;99.10;;;;;;20835112;28;20238;-70
2022/03/15 18:02:22;;;;;;;31.70;21.17;;;9.70;99.10;;;;;;20834691;28;20266;-69
2022/03/15 18:12:28;;;;;;;30.77;20.90;;;9.50;99.70;;;;;;20839723;28;20279;-78
2022/03/15 18:22:30;;;;;;;27.53;20.07;;;9.50;99.90;;;;;;20881159;28;20211;-73
2022/03/15 18:32:32;;;;;;;29.60;19.70;;;9.60;99.70;;;;;;20871179;28;20228;-71
2022/03/15 18:42:53;;;;;;;28.40;19.23;;;9.70;99.90;;;;;;20833275;28;20204;-71
2022/03/15 18:52:54;;;;;;;32.07;19.70;;;9.50;99.60;;;;;;20904579;28;20231;-65
2022/03/15 19:03:01;;;;;;;28.13;20.47;;;9.50;99.90;;;;;;20915877;28;20569;-68
2022/03/15 19:13:06;;;;;;;32.50;21.07;;;9.40;99.90;;;;;;20856722;28;20239;-73
2022/03/15 19:23:16;;;;;;;25.50;19.77;;;9.50;99.90;;;;;;20886781;28;20202;-66
2022/03/15 19:33:18;;;;;;;25.20;19.13;;;9.50;99.40;;;;;;20932594;28;20234;-64
2022/03/15 19:43:20;;;;;;;27.00;19.37;;;9.30;99.40;;;;;;20925930;28;20210;-66
2022/03/15 19:53:26;;;;;;;26.63;19.87;;;9.30;99.60;;;;;;20883797;28;20644;-72
2022/03/15 20:03:32;;;;;;;29.70;19.53;;;9.40;99.60;;;;;;20897053;28;20199;-67
2022/03/15 20:13:35;;;;;;;24.77;17.97;;;9.20;99.30;;;;;;20910735;28;20314;-62
2022/03/15 20:23:37;;;;;;;26.40;17.17;;;9.10;99.30;;;;;;20882420;28;20211;-67
2022/03/15 20:33:39;;;;;;;22.17;16.93;;;9.10;99.10;;;;;;20841984;28;20229;-75
2022/03/15 20:54:02;;;;;;;28.03;17.67;;;9.00;99.30;;;;;;20850846;28;20244;-66
2022/03/15 21:04:08;;;;;;;24.80;17.27;;;8.70;99.30;;;;;;20856777;28;20210;-62
2022/03/15 21:14:12;;;;;;;25.50;16.80;;;8.60;99.20;;;;;;20837349;28;20242;-63
2022/03/15 21:24:14;;;;;;;22.43;16.00;;;8.60;99.10;;;;;;20859550;28;20248;-65
2022/03/15 21:34:16;;;;;;;24.87;16.77;;;8.50;99.20;;;;;;20880500;28;20338;-66
2022/03/15 21:44:19;;;;;;;24.27;16.70;;;8.50;99.10;;;;;;20918446;28;20205;-63
2022/03/15 21:54:23;;;;;;;23.57;16.40;;;8.60;99.10;;;;;;20917572;28;20233;-63
2022/03/15 22:04:26;;;;;;;22.10;16.27;;;8.60;99.00;;;;;;20916569;28;20260;-69
2022/03/15 22:14:29;;;;;;;22.40;16.47;;;8.80;98.80;;;;;;20915280;28;20677;-65
2022/03/15 22:24:33;;;;;;;23.83;17.07;;;8.80;98.60;;;;;;20915296;28;20220;-66
2022/03/15 23:25:39;;;;;;;24.53;17.30;;;8.50;98.50;;;;;;20926536;28;20719;-69
2022/03/15 23:35:41;;;;;;;26.47;18.40;;;8.20;98.30;;;;;;20911471;28;20293;-73
2022/03/15 23:45:46;;;;;;;25.50;17.83;;;8.10;98.20;;;;;;20894907;28;20216;-65
2022/03/15 23:55:47;;;;;;;24.13;17.40;;;7.80;98.10;;;;;;20836832;28;20234;-64
